Time;durP1;ratioP1;P1;durP2;ratioP2;P2;SDS_P1;SDS_P2;PMS_P1;PMS_P2;Temp;Humidity;BMP_temperature;BMP_pressure;BME280_temperature;BME280_humidity;BME280_pressure;Samples;Min_cycle;Max_cycle;Signal;HPM_P1;HPM_P2
2023/09/12 00:00:54;;;;;;;27.85;22.80;;;22.60;99.90;;;;;;4961338;28;20039;-75
2023/09/12 00:03:22;;;;;;;32.42;26.30;;;22.60;99.90;;;;;;4961093;28;20134;-75
2023/09/12 00:05:55;;;;;;;30.63;24.58;;;22.50;99.90;;;;;;4962882;28;20016;-75
2023/09/12 00:08:20;;;;;;;27.77;23.95;;;22.50;99.90;;;;;;4945196;28;20485;-76
2023/09/12 00:10:46;;;;;;;29.27;23.88;;;22.40;99.90;;;;;;4936440;28;20033;-75
2023/09/12 00:13:12;;;;;;;29.38;22.77;;;22.40;99.90;;;;;;4956726;28;20117;-75
2023/09/12 00:15:38;;;;;;;26.25;23.05;;;22.30;99.90;;;;;;4955862;28;20023;-75
2023/09/12 00:18:04;;;;;;;31.13;23.90;;;22.30;99.90;;;;;;4963256;28;20074;-75
2023/09/12 00:20:29;;;;;;;30.55;24.67;;;22.30;99.90;;;;;;4954873;28;20027;-75
2023/09/12 00:22:56;;;;;;;30.05;24.55;;;22.30;99.90;;;;;;4963322;28;20082;-75
2023/09/12 00:25:21;;;;;;;30.17;24.83;;;22.30;99.90;;;;;;4940936;28;20086;-75
2023/09/12 00:27:47;;;;;;;30.35;25.42;;;22.20;99.90;;;;;;4938168;28;20506;-75
2023/09/12 00:30:16;;;;;;;30.20;25.25;;;22.20;99.90;;;;;;4961319;28;20081;-75
2023/09/12 00:32:42;;;;;;;35.72;27.92;;;22.20;99.90;;;;;;4963050;28;20114;-75
2023/09/12 00:35:07;;;;;;;31.63;25.38;;;22.10;99.90;;;;;;4954870;28;20117;-75
2023/09/12 00:37:33;;;;;;;31.45;25.45;;;22.10;99.90;;;;;;4957507;28;20023;-75
2023/09/12 00:39:59;;;;;;;30.65;26.92;;;22.10;99.90;;;;;;4962478;28;20058;-75
2023/09/12 00:42:27;;;;;;;34.70;28.27;;;22.10;99.90;;;;;;4958620;28;20026;-75
2023/09/12 00:44:53;;;;;;;29.83;23.83;;;22.00;99.90;;;;;;4954866;28;20111;-75
2023/09/12 00:47:20;;;;;;;30.95;25.90;;;22.00;99.90;;;;;;4960762;28;20472;-75
2023/09/12 00:49:47;;;;;;;30.30;25.25;;;21.90;99.90;;;;;;4962469;28;20097;-75
2023/09/12 00:52:14;;;;;;;35.38;28.08;;;21.90;99.90;;;;;;4955533;28;20547;-75
2023/09/12 00:54:40;;;;;;;35.13;27.77;;;21.80;99.90;;;;;;4955799;28;20035;-75
2023/09/12 00:57:06;;;;;;;35.30;27.65;;;21.80;99.90;;;;;;4962851;28;20383;-76
2023/09/12 00:59:32;;;;;;;34.38;28.13;;;21.80;99.90;;;;;;4959217;28;20560;-75
2023/09/12 01:01:59;;;;;;;34.35;28.20;;;21.80;99.90;;;;;;4954804;28;20027;-75
2023/09/12 01:04:25;;;;;;;31.27;26.48;;;21.80;99.90;;;;;;4947952;28;20058;-75
2023/09/12 01:06:51;;;;;;;35.22;28.25;;;21.80;99.90;;;;;;4954538;28;20023;-75
2023/09/12 01:09:17;;;;;;;35.85;26.65;;;21.80;99.90;;;;;;4961376;28;20031;-75
2023/09/12 01:11:43;;;;;;;32.45;26.20;;;21.80;99.90;;;;;;4952898;28;20027;-74
2023/09/12 01:14:09;;;;;;;31.27;25.75;;;21.80;99.90;;;;;;4962181;28;20560;-75
2023/09/12 01:16:35;;;;;;;31.15;25.95;;;21.80;99.90;;;;;;4955983;28;20030;-75
2023/09/12 01:19:01;;;;;;;31.83;25.73;;;21.80;99.90;;;;;;4937749;29;20537;-74
2023/09/12 01:21:27;;;;;;;32.47;26.20;;;21.70;99.90;;;;;;4962032;28;20409;-75
2023/09/12 01:24:18;;;;;;;32.13;26.55;;;21.70;99.90;;;;;;4960163;28;20118;-75
2023/09/12 01:26:56;;;;;;;;;;;21.70;99.90;;;;;;4942980;28;20022;-75
2023/09/12 01:29:23;;;;;;;29.10;24.52;;;21.70;99.90;;;;;;4953941;28;19917;-75
2023/09/12 01:31:50;;;;;;;30.38;25.55;;;21.60;99.90;;;;;;4937804;28;20034;-75
2023/09/12 01:34:16;;;;;;;31.40;25.25;;;21.50;99.90;;;;;;4955454;28;20442;-74
2023/09/12 01:36:42;;;;;;;32.55;25.58;;;21.50;99.90;;;;;;4944868;29;20177;-75
2023/09/12 01:39:08;;;;;;;33.95;25.42;;;21.50;99.90;;;;;;4958935;28;20566;-75
2023/09/12 01:41:39;;;;;;;34.13;25.85;;;21.50;99.90;;;;;;4954106;28;20134;-74
2023/09/12 01:44:05;;;;;;;;;;;21.50;99.90;;;;;;4959050;28;20179;-75
2023/09/12 01:46:34;;;;;;;30.35;24.27;;;21.40;99.90;;;;;;4954777;28;20020;-75
2023/09/12 01:49:01;;;;;;;34.78;27.05;;;21.40;99.90;;;;;;4960273;28;20500;-75
2023/09/12 01:51:28;;;;;;;29.40;24.20;;;21.40;99.90;;;;;;4961912;28;20357;-75
2023/09/12 01:53:55;;;;;;;30.48;24.98;;;21.40;99.90;;;;;;4937295;28;20027;-75
2023/09/12 01:56:21;;;;;;;30.95;26.40;;;21.30;99.90;;;;;;4955316;28;20031;-75
2023/09/12 01:58:47;;;;;;;31.08;26.42;;;21.30;99.90;;;;;;4945877;29;20394;-75
2023/09/12 02:01:14;;;;;;;33.00;25.77;;;21.30;99.90;;;;;;4958369;28;20027;-75
2023/09/12 02:03:39;;;;;;;30.88;24.67;;;21.30;99.90;;;;;;4954224;28;20030;-75
2023/09/12 02:06:05;;;;;;;31.35;23.42;;;21.30;99.90;;;;;;4959487;28;20015;-75
2023/09/12 02:08:30;;;;;;;28.05;23.67;;;21.30;99.90;;;;;;4948536;29;20029;-75
2023/09/12 02:10:56;;;;;;;30.15;25.23;;;21.30;99.90;;;;;;4952006;28;20028;-74
2023/09/12 02:13:22;;;;;;;32.85;25.80;;;21.30;99.90;;;;;;4956647;28;20545;-75
2023/09/12 02:15:47;;;;;;;29.67;24.83;;;21.30;99.90;;;;;;4953784;28;20034;-75
2023/09/12 02:18:13;;;;;;;33.83;25.50;;;21.20;99.90;;;;;;4961409;28;20070;-75
2023/09/12 02:20:41;;;;;;;30.33;24.02;;;21.20;99.90;;;;;;4960327;28;20473;-75
2023/09/12 02:23:07;;;;;;;33.58;23.92;;;21.20;99.90;;;;;;4954276;28;20039;-75
2023/09/12 02:25:33;;;;;;;26.77;23.20;;;21.20;99.90;;;;;;4956759;28;20100;-75
2023/09/12 02:27:58;;;;;;;30.10;23.60;;;21.20;99.90;;;;;;4961932;28;20025;-75
2023/09/12 02:30:24;;;;;;;31.23;24.52;;;21.10;99.90;;;;;;4956627;28;20023;-75
2023/09/12 02:32:49;;;;;;;28.70;23.42;;;21.10;99.90;;;;;;4953786;28;20035;-75
2023/09/12 02:35:15;;;;;;;30.52;24.27;;;21.10;99.90;;;;;;4961951;28;20035;-75
2023/09/12 02:37:41;;;;;;;31.98;24.50;;;21.10;99.90;;;;;;4964191;28;20544;-74
2023/09/12 02:40:10;;;;;;;23.65;19.55;;;21.10;99.90;;;;;;4956925;28;20061;-75
2023/09/12 02:42:36;;;;;;;22.77;18.42;;;21.00;99.90;;;;;;4959783;28;20027;-75
2023/09/12 02:45:02;;;;;;;21.60;19.33;;;21.00;99.90;;;;;;4964701;28;20026;-75
2023/09/12 02:47:28;;;;;;;24.58;20.45;;;21.00;99.90;;;;;;4960464;28;20083;-75
2023/09/12 02:49:54;;;;;;;24.90;21.20;;;21.00;99.90;;;;;;4956757;28;20495;-75
2023/09/12 02:52:19;;;;;;;28.70;22.00;;;20.90;99.90;;;;;;4963357;28;20035;-75
2023/09/12 02:54:45;;;;;;;25.30;21.70;;;20.90;99.90;;;;;;4964244;28;20030;-75
2023/09/12 02:57:11;;;;;;;28.85;22.20;;;20.90;99.90;;;;;;4957153;28;20097;-75
2023/09/12 02:59:37;;;;;;;25.30;20.13;;;20.90;99.90;;;;;;4942013;29;20106;-75
2023/09/12 03:02:02;;;;;;;22.65;18.63;;;20.80;99.90;;;;;;4964748;28;20019;-75
2023/09/12 03:04:29;;;;;;;19.15;17.10;;;20.80;99.90;;;;;;4960367;28;20064;-75
2023/09/12 03:06:55;;;;;;;19.83;14.77;;;20.80;99.90;;;;;;4956649;28;20042;-75
2023/09/12 03:09:22;;;;;;;28.00;16.30;;;20.80;99.90;;;;;;4945637;29;20035;-74
2023/09/12 03:11:49;;;;;;;17.90;15.40;;;20.70;99.90;;;;;;4954829;28;20031;-75
2023/09/12 03:14:14;;;;;;;19.55;14.20;;;20.60;99.90;;;;;;4953011;28;20039;-75
2023/09/12 03:16:40;;;;;;;17.05;14.45;;;20.60;99.90;;;;;;4962340;28;20478;-75
2023/09/12 03:19:06;;;;;;;17.30;15.38;;;20.50;99.90;;;;;;4964577;28;20118;-75
2023/09/12 03:21:32;;;;;;;15.93;13.63;;;20.50;99.90;;;;;;4926666;28;20043;-75
2023/09/12 03:23:57;;;;;;;13.40;11.15;;;20.50;99.90;;;;;;4961032;28;20103;-74
2023/09/12 03:26:23;;;;;;;12.80;9.77;;;20.40;99.90;;;;;;4949208;29;20034;-75
2023/09/12 03:28:52;;;;;;;13.05;11.50;;;20.40;99.90;;;;;;4960354;28;20046;-75
2023/09/12 03:31:18;;;;;;;10.93;7.45;;;20.40;99.90;;;;;;4938653;28;20057;-75
2023/09/12 03:33:49;;;;;;;11.90;10.23;;;20.30;99.90;;;;;;4949578;29;20486;-75
2023/09/12 03:36:15;;;;;;;9.85;8.90;;;20.30;99.90;;;;;;4965422;28;20033;-75
2023/09/12 03:38:41;;;;;;;13.60;11.48;;;20.30;99.90;;;;;;4957997;28;20081;-75
2023/09/12 03:41:06;;;;;;;15.77;12.80;;;20.30;99.90;;;;;;4957106;28;20043;-74
2023/09/12 03:43:33;;;;;;;13.80;12.27;;;20.30;99.90;;;;;;4964036;28;20019;-75
2023/09/12 03:45:59;;;;;;;15.00;12.63;;;20.30;99.90;;;;;;4960912;28;20026;-75
2023/09/12 03:48:25;;;;;;;18.77;13.77;;;20.30;99.90;;;;;;4955767;28;20018;-75
2023/09/12 03:50:51;;;;;;;12.43;11.07;;;20.30;99.90;;;;;;4960449;28;20497;-75
2023/09/12 03:53:17;;;;;;;14.77;12.57;;;20.30;99.90;;;;;;4963852;28;20584;-75
2023/09/12 03:55:43;;;;;;;16.38;13.75;;;20.30;99.90;;;;;;4939650;28;20092;-75
2023/09/12 03:58:09;;;;;;;19.48;16.05;;;20.30;99.90;;;;;;4956649;28;20035;-75
2023/09/12 04:00:35;;;;;;;19.58;15.60;;;20.30;99.90;;;;;;4963352;28;20031;-74
2023/09/12 04:03:01;;;;;;;15.80;13.45;;;20.30;99.90;;;;;;4950135;29;20082;-74
2023/09/12 04:05:26;;;;;;;16.63;14.82;;;20.30;99.90;;;;;;4952710;28;20046;-75
2023/09/12 04:07:52;;;;;;;17.00;14.38;;;20.30;99.90;;;;;;4960555;28;20047;-75
2023/09/12 04:10:20;;;;;;;15.32;13.45;;;20.30;99.90;;;;;;4963281;28;20025;-75
2023/09/12 04:12:45;;;;;;;18.38;14.55;;;20.30;99.90;;;;;;4963515;28;20119;-75
2023/09/12 04:15:11;;;;;;;18.88;15.05;;;20.30;99.90;;;;;;4958926;28;20105;-75
2023/09/12 04:17:37;;;;;;;20.05;16.60;;;20.30;99.90;;;;;;4955574;28;20035;-74
2023/09/12 04:20:04;;;;;;;17.52;14.90;;;20.30;99.90;;;;;;4961760;28;20054;-75
2023/09/12 04:22:30;;;;;;;18.85;15.57;;;20.30;99.90;;;;;;4963237;28;20089;-75
2023/09/12 04:24:56;;;;;;;20.83;16.60;;;20.30;99.90;;;;;;4949535;28;20027;-75
2023/09/12 04:27:21;;;;;;;22.38;17.92;;;20.30;99.90;;;;;;4940313;29;20031;-75
2023/09/12 04:29:47;;;;;;;23.25;18.75;;;20.30;99.90;;;;;;4963024;28;20546;-75
2023/09/12 04:32:12;;;;;;;21.83;18.75;;;20.30;99.90;;;;;;4959093;28;20402;-74
2023/09/12 04:34:38;;;;;;;25.77;19.08;;;20.40;99.90;;;;;;4937828;28;20035;-75
2023/09/12 04:37:05;;;;;;;24.10;20.50;;;20.40;99.90;;;;;;4961374;28;20071;-74
2023/09/12 04:39:31;;;;;;;27.40;21.95;;;20.40;99.90;;;;;;4962770;28;20050;-74
2023/09/12 04:41:56;;;;;;;29.40;22.20;;;20.40;99.90;;;;;;4941265;28;20041;-74
2023/09/12 04:44:22;;;;;;;28.88;22.92;;;20.50;99.90;;;;;;4955831;28;20033;-73
2023/09/12 04:46:48;;;;;;;31.55;24.02;;;20.50;99.90;;;;;;4962903;28;20066;-73
2023/09/12 04:49:14;;;;;;;32.75;25.20;;;20.50;99.90;;;;;;4959050;28;20014;-74
2023/09/12 04:51:39;;;;;;;29.92;23.75;;;20.50;99.90;;;;;;4954393;28;20042;-74
2023/09/12 04:54:05;;;;;;;35.97;27.35;;;20.50;99.90;;;;;;4959655;28;20031;-74
2023/09/12 04:56:31;;;;;;;88.15;31.95;;;20.50;99.90;;;;;;4962651;28;20029;-74
2023/09/12 04:58:57;;;;;;;35.70;28.25;;;20.50;99.90;;;;;;4949074;28;20493;-74
2023/09/12 05:01:22;;;;;;;37.28;29.00;;;20.50;99.90;;;;;;4960180;28;20062;-74
2023/09/12 05:03:48;;;;;;;34.88;26.25;;;20.50;99.90;;;;;;4966257;28;20019;-74
2023/09/12 05:06:14;;;;;;;29.60;24.67;;;20.50;99.90;;;;;;4958576;28;20027;-74
2023/09/12 05:08:39;;;;;;;32.78;26.13;;;20.50;99.90;;;;;;4962470;28;20026;-74
2023/09/12 05:11:05;;;;;;;38.00;29.15;;;20.50;99.90;;;;;;4952352;28;20027;-74
2023/09/12 05:13:31;;;;;;;113.20;36.45;;;20.50;99.90;;;;;;4957262;28;20031;-74
2023/09/12 05:15:56;;;;;;;40.75;31.00;;;20.50;99.90;;;;;;4954194;28;20035;-74
2023/09/12 05:18:22;;;;;;;43.38;31.38;;;20.50;99.90;;;;;;4954831;28;20435;-74
2023/09/12 05:20:48;;;;;;;45.97;32.53;;;20.50;99.90;;;;;;4942578;29;20023;-74
2023/09/12 05:23:14;;;;;;;42.40;31.08;;;20.50;99.90;;;;;;4946344;28;20390;-74
2023/09/12 05:25:40;;;;;;;45.17;30.77;;;20.50;99.90;;;;;;4956513;28;20395;-74
2023/09/12 05:28:05;;;;;;;49.85;31.83;;;20.50;99.90;;;;;;4958600;28;20033;-74
2023/09/12 05:30:31;;;;;;;44.83;31.92;;;20.50;99.90;;;;;;4936416;29;20476;-74
2023/09/12 05:32:57;;;;;;;45.90;31.80;;;20.50;99.90;;;;;;4962963;28;20031;-74
2023/09/12 05:35:22;;;;;;;46.38;31.92;;;20.60;99.90;;;;;;4959916;28;20841;-74
2023/09/12 05:37:48;;;;;;;41.92;29.83;;;20.60;99.90;;;;;;4948885;29;20027;-74
2023/09/12 05:40:14;;;;;;;45.03;29.00;;;20.50;99.90;;;;;;4961930;28;20055;-74
2023/09/12 05:42:40;;;;;;;63.85;33.15;;;20.50;99.90;;;;;;4948129;28;20058;-74
2023/09/12 05:45:06;;;;;;;35.95;27.25;;;20.60;99.90;;;;;;4940820;28;20074;-74
2023/09/12 05:47:32;;;;;;;45.42;33.40;;;20.60;99.90;;;;;;4950975;28;20027;-74
2023/09/12 05:49:59;;;;;;;44.13;33.58;;;20.60;99.90;;;;;;4951582;28;20489;-74
2023/09/12 05:52:25;;;;;;;43.33;31.90;;;20.60;99.90;;;;;;4948756;28;20077;-74
2023/09/12 05:54:51;;;;;;;47.03;34.63;;;20.60;99.90;;;;;;4961113;28;20042;-74
2023/09/12 05:57:16;;;;;;;47.70;35.42;;;20.60;99.90;;;;;;4948118;28;20397;-74
2023/09/12 05:59:42;;;;;;;58.10;37.97;;;20.60;99.90;;;;;;4961979;28;20023;-74
2023/09/12 06:02:09;;;;;;;41.03;31.60;;;20.60;99.90;;;;;;4961503;28;20516;-74
2023/09/12 06:04:35;;;;;;;47.28;34.03;;;20.60;99.90;;;;;;4959088;28;20050;-74
2023/09/12 06:07:04;;;;;;;59.13;41.28;;;20.70;99.90;;;;;;4957419;28;20027;-74
2023/09/12 06:09:30;;;;;;;54.85;39.17;;;20.70;99.90;;;;;;4957186;28;20022;-74
2023/09/12 06:11:56;;;;;;;65.15;42.53;;;20.70;99.90;;;;;;4955485;28;20179;-75
2023/09/12 06:14:22;;;;;;;55.85;38.58;;;20.60;99.90;;;;;;4954615;28;20022;-74
2023/09/12 06:16:47;;;;;;;60.97;40.60;;;20.60;99.90;;;;;;4947498;28;20031;-74
2023/09/12 06:19:14;;;;;;;51.63;37.75;;;20.60;99.90;;;;;;4957503;28;20027;-74
2023/09/12 06:21:40;;;;;;;61.08;41.67;;;20.60;99.90;;;;;;4957311;28;20031;-74
2023/09/12 06:24:10;;;;;;;59.47;41.63;;;20.60;99.90;;;;;;4964801;28;20129;-75
2023/09/12 06:26:37;;;;;;;64.82;43.20;;;20.60;99.90;;;;;;4952376;28;20393;-74
2023/09/12 06:29:03;;;;;;;53.85;37.03;;;20.60;99.90;;;;;;4955834;28;20019;-74
2023/09/12 06:31:29;;;;;;;63.25;40.15;;;20.60;99.90;;;;;;4956811;28;20046;-74
2023/09/12 06:33:55;;;;;;;56.30;38.55;;;20.60;99.90;;;;;;4935895;29;20126;-74
2023/09/12 06:36:20;;;;;;;64.68;40.90;;;20.60;99.90;;;;;;4952203;28;20113;-74
2023/09/12 06:38:46;;;;;;;61.88;40.03;;;20.60;99.90;;;;;;4954338;28;20046;-74
2023/09/12 06:41:12;;;;;;;50.30;34.72;;;20.70;99.90;;;;;;4944994;28;20055;-74
2023/09/12 06:43:37;;;;;;;53.55;36.88;;;20.70;99.90;;;;;;4945164;28;20121;-74
2023/09/12 06:46:03;;;;;;;52.75;36.70;;;20.70;99.90;;;;;;4968413;28;20381;-74
2023/09/12 06:48:28;;;;;;;50.63;34.40;;;20.70;99.90;;;;;;4965050;28;20446;-74
2023/09/12 06:50:54;;;;;;;52.90;36.75;;;20.70;99.90;;;;;;4967387;28;20417;-75
2023/09/12 06:53:20;;;;;;;57.17;37.50;;;20.80;99.90;;;;;;4941622;28;20038;-74
2023/09/12 06:55:46;;;;;;;57.92;39.30;;;20.80;99.90;;;;;;4948454;28;20031;-74
2023/09/12 06:58:12;;;;;;;55.95;37.70;;;20.80;99.90;;;;;;4948294;28;20043;-74
2023/09/12 07:00:38;;;;;;;58.55;36.58;;;20.80;99.90;;;;;;4952546;28;20020;-74
2023/09/12 07:03:03;;;;;;;58.58;38.78;;;20.90;99.90;;;;;;4950813;28;20118;-74
2023/09/12 07:05:29;;;;;;;54.95;38.20;;;20.90;99.90;;;;;;4933049;29;20214;-74
2023/09/12 07:07:55;;;;;;;57.35;38.85;;;20.90;99.90;;;;;;4953427;28;20034;-74
2023/09/12 07:10:21;;;;;;;61.42;41.03;;;20.90;99.90;;;;;;4951622;28;20442;-74
2023/09/12 07:12:46;;;;;;;62.78;40.67;;;20.90;99.90;;;;;;4948883;28;20121;-74
2023/09/12 07:15:12;;;;;;;57.85;39.25;;;20.90;99.90;;;;;;4951762;28;20114;-74
2023/09/12 07:17:38;;;;;;;52.60;37.20;;;20.90;99.90;;;;;;4951882;28;20030;-74
2023/09/12 07:20:11;;;;;;;60.42;38.22;;;20.90;99.90;;;;;;4949776;28;20090;-74
2023/09/12 07:22:38;;;;;;;58.88;38.85;;;20.90;99.90;;;;;;4950927;28;20157;-74
2023/09/12 07:25:04;;;;;;;51.05;36.47;;;21.00;99.90;;;;;;4933018;28;20035;-74
2023/09/12 07:27:30;;;;;;;61.25;40.58;;;21.00;99.90;;;;;;4953638;28;20059;-74
2023/09/12 07:29:55;;;;;;;55.00;38.97;;;21.00;99.90;;;;;;4949076;28;20058;-74
2023/09/12 07:32:21;;;;;;;59.38;38.70;;;21.00;99.90;;;;;;4937931;28;20476;-74
2023/09/12 07:34:48;;;;;;;58.88;39.63;;;21.00;99.90;;;;;;4942976;28;20142;-74
2023/09/12 07:37:14;;;;;;;59.95;39.20;;;21.00;99.90;;;;;;4958609;28;20468;-73
2023/09/12 07:39:40;;;;;;;57.10;39.17;;;21.10;99.90;;;;;;4955675;28;20055;-73
2023/09/12 07:42:06;;;;;;;58.30;39.50;;;21.10;99.90;;;;;;4961909;28;20034;-73
2023/09/12 07:44:31;;;;;;;63.15;41.92;;;21.10;99.90;;;;;;4952392;28;20054;-73
2023/09/12 07:46:57;;;;;;;62.50;40.75;;;21.10;99.90;;;;;;4952305;28;20883;-73
2023/09/12 07:49:26;;;;;;;58.45;40.85;;;21.00;99.90;;;;;;4939775;29;20035;-73
2023/09/12 07:51:51;;;;;;;61.90;40.33;;;21.00;99.90;;;;;;4956325;28;20036;-73
2023/09/12 07:54:17;;;;;;;59.17;38.30;;;21.00;99.90;;;;;;4947022;28;20035;-74
2023/09/12 07:56:43;;;;;;;63.53;40.08;;;21.00;99.90;;;;;;4946202;28;20023;-73
2023/09/12 07:59:10;;;;;;;63.47;41.92;;;20.90;99.90;;;;;;4948291;28;20031;-74
2023/09/12 08:01:36;;;;;;;60.95;42.45;;;20.90;99.90;;;;;;4939941;29;20443;-74
2023/09/12 08:04:03;;;;;;;58.72;39.03;;;20.90;99.90;;;;;;4946023;28;20065;-73
2023/09/12 08:06:30;;;;;;;69.03;45.03;;;20.90;99.90;;;;;;4938604;28;20024;-74
2023/09/12 08:08:55;;;;;;;58.85;39.25;;;20.90;99.90;;;;;;4936489;28;20029;-73
2023/09/12 08:11:21;;;;;;;71.30;42.95;;;20.90;99.90;;;;;;4952328;28;20031;-74
2023/09/12 08:13:49;;;;;;;72.90;41.78;;;20.90;99.90;;;;;;4952158;28;20656;-73
2023/09/12 08:16:15;;;;;;;77.97;44.35;;;20.90;99.90;;;;;;4955151;28;20031;-73
2023/09/12 08:18:41;;;;;;;68.65;43.53;;;20.90;99.90;;;;;;4959325;28;20030;-74
2023/09/12 08:21:07;;;;;;;73.60;44.30;;;20.90;99.90;;;;;;4945627;28;20035;-74
2023/09/12 08:23:33;;;;;;;61.28;39.35;;;21.00;99.90;;;;;;4958189;28;20050;-74
2023/09/12 08:25:59;;;;;;;79.82;46.13;;;21.00;99.90;;;;;;4937542;28;20077;-74
2023/09/12 08:28:25;;;;;;;78.68;49.28;;;21.10;99.90;;;;;;4962655;28;20016;-74
2023/09/12 08:30:51;;;;;;;73.35;47.05;;;21.10;99.90;;;;;;4961479;28;20489;-74
2023/09/12 08:33:16;;;;;;;67.15;43.17;;;21.10;99.90;;;;;;4954334;28;20058;-74
2023/09/12 08:35:43;;;;;;;67.90;43.42;;;21.10;99.90;;;;;;4958256;28;20023;-75
2023/09/12 08:38:09;;;;;;;78.93;48.75;;;21.10;99.90;;;;;;4956577;28;20039;-74
2023/09/12 08:40:35;;;;;;;74.45;44.90;;;21.20;99.90;;;;;;4949662;28;20043;-74
2023/09/12 08:43:03;;;;;;;65.20;42.85;;;21.20;99.90;;;;;;4951158;28;20056;-77
2023/09/12 08:45:30;;;;;;;69.97;44.45;;;21.20;99.90;;;;;;4943638;28;20527;-74
2023/09/12 08:47:58;;;;;;;66.18;40.78;;;21.30;99.90;;;;;;4954441;28;20031;-74
2023/09/12 08:50:24;;;;;;;70.72;43.92;;;21.30;99.90;;;;;;4953646;28;20126;-74
2023/09/12 08:52:51;;;;;;;58.88;38.90;;;21.40;99.90;;;;;;4942436;29;20111;-73
2023/09/12 08:55:16;;;;;;;60.97;38.58;;;21.40;99.90;;;;;;4932465;28;20023;-74
2023/09/12 08:57:43;;;;;;;69.03;42.97;;;21.50;99.90;;;;;;4950720;28;20082;-74
2023/09/12 09:00:12;;;;;;;65.50;42.17;;;21.60;99.90;;;;;;4962580;28;20027;-74
2023/09/12 09:02:39;;;;;;;55.88;38.75;;;21.70;99.90;;;;;;4947664;28;20030;-74
2023/09/12 09:05:09;;;;;;;66.72;40.83;;;21.70;99.90;;;;;;4959308;28;20023;-74
2023/09/12 09:07:42;;;;;;;58.08;42.78;;;21.80;99.90;;;;;;4962548;28;20097;-75
2023/09/12 09:10:14;;;;;;;55.70;38.00;;;21.80;99.90;;;;;;4955634;28;20019;-74
2023/09/12 09:12:40;;;;;;;47.25;32.90;;;21.70;99.90;;;;;;4945979;28;20117;-75
2023/09/12 09:15:29;;;;;;;44.35;29.60;;;21.70;99.90;;;;;;4949238;28;20035;-75
2023/09/12 09:17:57;;;;;;;45.70;31.48;;;21.70;99.90;;;;;;4952030;28;20058;-74
2023/09/12 09:20:23;;;;;;;46.22;34.10;;;21.70;99.90;;;;;;4956391;28;20403;-74
2023/09/12 09:22:57;;;;;;;41.35;29.70;;;21.70;99.90;;;;;;4932239;28;20042;-75
2023/09/12 09:25:23;;;;;;;41.67;29.88;;;21.80;99.90;;;;;;4956079;28;20071;-74
2023/09/12 09:27:48;;;;;;;38.85;28.90;;;21.80;99.90;;;;;;4954083;28;20072;-74
2023/09/12 09:30:14;;;;;;;37.33;26.90;;;21.80;99.90;;;;;;4943128;29;20075;-74
2023/09/12 09:32:40;;;;;;;38.58;27.58;;;21.80;99.90;;;;;;4954349;28;20031;-74
2023/09/12 09:35:07;;;;;;;39.50;27.25;;;21.90;99.90;;;;;;4938184;28;20037;-74
2023/09/12 09:37:33;;;;;;;34.88;25.10;;;21.90;99.90;;;;;;4930779;29;20473;-73
2023/09/12 09:39:59;;;;;;;30.92;24.65;;;21.90;99.90;;;;;;4958076;28;20057;-74
2023/09/12 09:42:28;;;;;;;31.33;23.88;;;22.00;99.90;;;;;;4946851;28;20027;-73
2023/09/12 09:44:54;;;;;;;31.25;24.35;;;22.00;99.90;;;;;;4931388;28;20034;-74
2023/09/12 09:47:20;;;;;;;30.73;24.55;;;22.00;99.90;;;;;;4955913;28;20019;-74
2023/09/12 09:49:46;;;;;;;32.00;24.60;;;22.10;99.90;;;;;;4951061;29;20035;-74
2023/09/12 09:52:12;;;;;;;25.75;19.17;;;22.10;99.90;;;;;;4952409;28;20027;-73
2023/09/12 09:54:44;;;;;;;16.88;13.65;;;22.20;99.90;;;;;;4956917;28;20363;-73
2023/09/12 09:57:10;;;;;;;22.98;17.75;;;22.20;99.90;;;;;;4964320;28;20042;-73
2023/09/12 09:59:36;;;;;;;22.15;18.27;;;22.20;99.90;;;;;;4952423;28;20051;-74
2023/09/12 10:02:06;;;;;;;24.92;21.02;;;22.30;99.90;;;;;;4966089;28;20031;-74
2023/09/12 10:04:33;;;;;;;23.73;20.33;;;22.30;99.90;;;;;;4968510;28;20057;-73
2023/09/12 10:06:59;;;;;;;25.50;19.50;;;22.40;99.90;;;;;;4947953;28;20031;-73
2023/09/12 10:09:30;;;;;;;24.80;19.60;;;22.30;99.90;;;;;;4951706;29;20022;-74
2023/09/12 10:11:58;;;;;;;20.17;16.00;;;22.40;99.90;;;;;;4937591;29;20039;-73
2023/09/12 10:14:26;;;;;;;16.17;14.18;;;22.50;99.90;;;;;;4965325;28;20034;-73
2023/09/12 10:17:00;;;;;;;17.98;15.00;;;22.50;99.90;;;;;;4961083;28;20039;-73
2023/09/12 10:19:30;;;;;;;23.08;18.73;;;22.60;99.90;;;;;;4958017;28;20161;-73
2023/09/12 10:22:15;;;;;;;;;;;22.60;99.90;;;;;;4965277;28;20034;-73
2023/09/12 10:24:43;;;;;;;22.23;17.92;;;22.70;99.90;;;;;;4940517;28;20403;-73
2023/09/12 10:27:11;;;;;;;25.83;18.55;;;22.70;99.90;;;;;;4956530;28;20031;-73
2023/09/12 10:29:36;;;;;;;23.42;20.67;;;22.70;99.90;;;;;;4965375;28;20034;-73
2023/09/12 10:32:02;;;;;;;19.88;17.77;;;22.80;99.90;;;;;;4959367;28;20031;-72
2023/09/12 10:34:31;;;;;;;21.98;17.67;;;22.80;99.90;;;;;;4965821;28;20027;-73
2023/09/12 10:37:04;;;;;;;22.83;19.52;;;22.90;99.90;;;;;;4958062;28;20398;-73
2023/09/12 10:39:32;;;;;;;22.77;19.50;;;23.00;99.90;;;;;;4957180;28;20043;-74
2023/09/12 10:41:59;;;;;;;25.02;22.20;;;23.10;99.90;;;;;;4944738;28;20046;-74
2023/09/12 10:44:25;;;;;;;22.00;19.60;;;23.20;99.90;;;;;;4954995;28;20066;-73
2023/09/12 10:46:55;;;;;;;23.92;19.83;;;23.30;99.90;;;;;;4956397;28;20027;-74
2023/09/12 10:49:21;;;;;;;22.77;18.00;;;23.40;99.90;;;;;;4951493;29;20110;-73
2023/09/12 10:51:48;;;;;;;19.58;17.35;;;23.50;99.90;;;;;;4939539;28;20038;-73
2023/09/12 10:54:22;;;;;;;21.65;18.73;;;23.60;99.90;;;;;;4951568;28;20027;-73
2023/09/12 10:57:14;;;;;;;20.17;17.52;;;23.70;99.90;;;;;;4955521;28;20023;-73
2023/09/12 11:00:04;;;;;;;23.58;19.52;;;23.80;99.90;;;;;;4956639;28;20460;-74
2023/09/12 11:02:31;;;;;;;21.08;18.67;;;23.80;99.90;;;;;;4949577;28;20059;-74
2023/09/12 11:04:57;;;;;;;21.42;15.77;;;23.90;99.90;;;;;;4952128;28;20035;-73
2023/09/12 11:07:38;;;;;;;14.57;13.05;;;23.90;99.90;;;;;;4967183;28;20397;-73
2023/09/12 11:10:12;;;;;;;;;;;24.00;99.90;;;;;;4944097;29;20031;-74
2023/09/12 11:12:38;;;;;;;14.93;12.35;;;24.00;99.90;;;;;;4962465;28;19910;-73
2023/09/12 11:15:11;;;;;;;13.95;10.75;;;24.00;99.90;;;;;;4957753;28;20073;-73
2023/09/12 11:17:38;;;;;;;14.52;11.07;;;24.10;99.90;;;;;;4953062;28;20134;-73
2023/09/12 11:20:14;;;;;;;14.55;11.35;;;24.10;99.90;;;;;;4961184;28;20542;-73
2023/09/12 11:22:44;;;;;;;12.68;8.98;;;24.20;99.90;;;;;;4944904;28;20787;-74
2023/09/12 11:25:19;;;;;;;11.82;10.25;;;24.30;99.90;;;;;;4957010;28;20029;-73
2023/09/12 11:27:51;;;;;;;15.25;12.02;;;24.40;99.90;;;;;;4952918;28;20026;-73
2023/09/12 11:30:18;;;;;;;14.05;10.85;;;24.40;99.90;;;;;;4939749;28;20035;-73
2023/09/12 11:32:47;;;;;;;14.23;11.52;;;24.50;99.90;;;;;;4962558;28;20122;-73
2023/09/12 11:35:14;;;;;;;14.73;12.18;;;24.60;99.90;;;;;;4967221;28;20393;-74
2023/09/12 11:37:58;;;;;;;11.40;9.48;;;24.60;99.90;;;;;;4946384;28;20042;-73
2023/09/12 11:40:26;;;;;;;15.15;10.55;;;24.70;99.90;;;;;;4951990;28;20047;-74
2023/09/12 11:42:52;;;;;;;12.80;10.95;;;24.70;99.90;;;;;;4950534;28;20027;-73
2023/09/12 11:45:19;;;;;;;14.00;11.85;;;24.80;99.90;;;;;;4961065;28;20082;-74
2023/09/12 11:47:46;;;;;;;15.35;11.45;;;24.80;99.90;;;;;;4954025;28;20561;-74
2023/09/12 11:50:39;;;;;;;16.63;12.18;;;24.90;99.90;;;;;;4938854;28;20019;-73
2023/09/12 11:53:09;;;;;;;17.42;13.20;;;24.90;99.90;;;;;;4940833;28;20114;-74
2023/09/12 11:55:44;;;;;;;;;;;25.00;99.90;;;;;;4948961;29;20657;-73
2023/09/12 11:58:11;;;;;;;15.82;11.82;;;25.00;99.90;;;;;;4941117;28;19911;-73
2023/09/12 12:00:37;;;;;;;14.60;11.82;;;25.00;99.90;;;;;;4936847;28;20038;-74
2023/09/12 12:03:04;;;;;;;14.27;11.77;;;25.10;99.90;;;;;;4931076;29;20027;-74
2023/09/12 12:05:30;;;;;;;17.77;13.00;;;25.20;99.90;;;;;;4961099;28;20054;-74
2023/09/12 12:07:58;;;;;;;15.32;12.23;;;25.20;99.90;;;;;;4966851;28;20361;-74
2023/09/12 12:10:24;;;;;;;12.23;10.00;;;25.20;99.90;;;;;;4962144;28;20016;-74
2023/09/12 12:12:53;;;;;;;13.75;10.70;;;25.30;99.90;;;;;;4951047;28;20086;-74
2023/09/12 12:15:21;;;;;;;15.40;11.88;;;25.30;99.90;;;;;;4966540;28;20027;-74
2023/09/12 12:17:47;;;;;;;14.90;10.40;;;25.40;99.90;;;;;;4963458;28;20078;-73
2023/09/12 12:20:13;;;;;;;13.85;9.90;;;25.50;99.90;;;;;;4963711;28;20054;-74
2023/09/12 12:22:39;;;;;;;12.65;10.23;;;25.50;99.90;;;;;;4966481;28;20088;-73
2023/09/12 12:25:12;;;;;;;11.75;9.20;;;25.60;99.90;;;;;;4954282;28;20034;-74
2023/09/12 12:27:39;;;;;;;11.30;8.82;;;25.70;99.90;;;;;;4949355;28;20790;-73